createdAt,value
2019-05-05T00:03:54.887Z,13.34
2019-05-05T00:06:24.996Z,13.18
2019-05-05T00:08:54.779Z,13.08
2019-05-05T00:11:25.902Z,12.96
2019-05-05T00:13:56.887Z,12.95
2019-05-05T00:16:44.571Z,12.95
2019-05-05T00:19:23.229Z,12.93
2019-05-05T00:21:45.274Z,12.83
2019-05-05T00:24:15.222Z,12.80
2019-05-05T00:26:46.038Z,12.85
2019-05-05T00:29:15.674Z,12.91
2019-05-05T00:31:45.410Z,13.07
2019-05-05T00:34:15.504Z,13.14
2019-05-05T00:36:45.056Z,13.21
2019-05-05T00:39:15.080Z,13.20
2019-05-05T00:41:44.981Z,13.14
2019-05-05T00:44:15.383Z,13.08
2019-05-05T00:49:44.088Z,13.16
2019-05-05T00:52:05.773Z,13.19
2019-05-05T00:54:35.138Z,13.11
2019-05-05T00:57:04.590Z,12.99
2019-05-05T00:59:34.801Z,12.99
2019-05-05T01:05:01.709Z,12.96
2019-05-05T01:07:31.120Z,12.86
2019-05-05T01:10:00.544Z,12.81
2019-05-05T01:12:29.981Z,12.71
2019-05-05T01:14:59.325Z,12.58
2019-05-05T01:17:28.754Z,12.53
2019-05-05T01:20:03.438Z,12.46
2019-05-05T01:22:29.178Z,12.53
2019-05-05T01:24:58.525Z,12.55
2019-05-05T01:27:27.950Z,12.71
2019-05-05T01:29:57.415Z,12.77
2019-05-05T01:32:28.398Z,12.75
2019-05-05T01:34:57.766Z,12.64
2019-05-05T01:37:28.758Z,12.58
2019-05-05T01:39:59.773Z,12.44
2019-05-05T01:42:29.111Z,12.44
2019-05-05T01:44:58.496Z,12.41
2019-05-05T01:47:27.913Z,12.35
2019-05-05T01:49:57.267Z,12.41
2019-05-05T01:52:26.630Z,12.38
2019-05-05T01:54:55.978Z,12.40
2019-05-05T01:57:26.303Z,12.49
2019-05-05T01:59:55.799Z,12.55
2019-05-05T02:02:25.289Z,12.56
2019-05-05T02:04:55.306Z,12.58
2019-05-05T02:07:25.194Z,12.66
2019-05-05T02:09:55.390Z,12.73
2019-05-05T02:12:25.089Z,12.78
2019-05-05T02:14:55.160Z,12.78
2019-05-05T02:17:24.936Z,12.75
2019-05-05T02:19:54.947Z,12.82
2019-05-05T02:22:25.269Z,12.87
2019-05-05T02:24:55.224Z,12.81
2019-05-05T02:27:25.319Z,12.83
2019-05-05T02:30:05.767Z,12.88
2019-05-05T02:32:38.782Z,12.94
2019-05-05T02:35:11.309Z,12.91
2019-05-05T02:37:40.664Z,12.96
2019-05-05T02:40:10.612Z,13.07
2019-05-05T02:42:41.326Z,13.06
2019-05-05T02:45:15.347Z,12.96
2019-05-05T02:53:29.053Z,13.06
2019-05-05T02:56:04.162Z,13.10
2019-05-05T02:58:35.359Z,13.12
2019-05-05T03:01:06.650Z,13.06
2019-05-05T03:03:38.937Z,13.09
2019-05-05T03:06:08.294Z,13.15
2019-05-05T03:08:39.297Z,13.14
2019-05-05T03:11:09.352Z,13.09
2019-05-05T03:13:40.199Z,13.23
2019-05-05T03:16:20.726Z,13.29
2019-05-05T03:18:50.973Z,13.25
2019-05-05T03:21:21.438Z,13.21
2019-05-05T03:23:51.495Z,13.14
2019-05-05T03:26:21.143Z,13.09
2019-05-05T03:28:54.329Z,13.13
2019-05-05T03:31:26.158Z,13.17
2019-05-05T03:33:56.309Z,13.21
2019-05-05T03:36:27.190Z,13.16
2019-05-05T03:38:56.772Z,13.19
2019-05-05T03:41:34.887Z,13.24
2019-05-05T03:44:06.142Z,13.28
2019-05-05T03:46:36.539Z,13.34
2019-05-05T03:49:06.008Z,13.38
2019-05-05T03:51:35.532Z,13.33
2019-05-05T03:54:05.223Z,13.34
2019-05-05T03:56:34.912Z,13.46
2019-05-05T03:59:05.042Z,13.47
2019-05-05T04:01:41.194Z,13.47
2019-05-05T04:04:13.904Z,13.54
2019-05-05T04:06:44.572Z,13.80
2019-05-05T04:09:13.965Z,13.80
2019-05-05T04:11:44.417Z,13.73
2019-05-05T04:14:14.378Z,13.78
2019-05-05T04:16:48.380Z,13.71
2019-05-05T04:19:19.390Z,13.86
2019-05-05T04:21:48.743Z,13.81
2019-05-05T04:24:18.117Z,13.93
2019-05-05T04:26:47.554Z,14.09
2019-05-05T04:29:16.941Z,13.95
2019-05-05T04:31:46.857Z,14.17
2019-05-05T04:34:16.230Z,14.06
2019-05-05T04:36:45.644Z,13.88
2019-05-05T04:39:15.136Z,13.88
2019-05-05T04:41:44.593Z,14.15
2019-05-05T04:44:14.849Z,14.19
2019-05-05T04:46:46.664Z,14.32
2019-05-05T04:49:17.666Z,14.50
2019-05-05T04:51:53.780Z,14.52
2019-05-05T04:54:27.081Z,14.30
2019-05-05T04:56:56.458Z,14.79
2019-05-05T04:59:25.923Z,15.42
2019-05-05T05:01:56.896Z,15.38
2019-05-05T05:04:30.578Z,15.05
2019-05-05T05:07:01.016Z,14.63
2019-05-05T05:09:30.371Z,14.62
2019-05-05T05:11:59.763Z,14.68
2019-05-05T05:14:29.129Z,14.79
2019-05-05T05:17:00.099Z,14.83
2019-05-05T05:19:29.490Z,14.45
2019-05-05T05:22:01.978Z,14.53
2019-05-05T05:24:29.934Z,14.34
2019-05-05T05:26:59.292Z,14.50
2019-05-05T05:29:28.724Z,14.78
2019-05-05T05:31:58.153Z,14.81
2019-05-05T05:34:27.527Z,15.05
2019-05-05T05:36:56.877Z,15.16
2019-05-05T05:39:44.154Z,15.12
2019-05-05T05:42:13.815Z,15.07
2019-05-05T05:44:44.832Z,15.04
2019-05-05T05:47:25.085Z,15.02
2019-05-05T05:49:58.809Z,15.14
2019-05-05T05:52:28.225Z,15.04
2019-05-05T05:54:57.581Z,15.01
2019-05-05T05:57:26.987Z,15.01
2019-05-05T05:59:56.428Z,14.84
2019-05-05T06:02:25.835Z,14.96
2019-05-05T06:04:55.177Z,15.00
2019-05-05T06:07:24.631Z,15.02
2019-05-05T06:09:54.263Z,15.20
2019-05-05T06:12:24.553Z,15.46
2019-05-05T06:14:55.021Z,15.53
2019-05-05T06:17:24.446Z,15.63
2019-05-05T06:19:53.793Z,15.70
2019-05-05T06:22:29.346Z,15.99
2019-05-05T06:24:56.273Z,16.16
2019-05-05T06:27:25.938Z,16.35
2019-05-05T06:29:55.303Z,16.32
2019-05-05T06:32:24.747Z,16.45
2019-05-05T06:34:54.172Z,16.45
2019-05-05T06:37:23.878Z,16.54
2019-05-05T06:39:54.925Z,16.26
2019-05-05T06:42:25.927Z,16.31
2019-05-05T06:44:56.919Z,16.37
2019-05-05T06:47:27.084Z,16.58
2019-05-05T06:49:56.437Z,16.81
2019-05-05T06:52:25.970Z,16.61
2019-05-05T06:54:55.470Z,16.58
2019-05-05T06:57:24.954Z,16.64
2019-05-05T06:59:54.577Z,16.83
2019-05-05T07:02:24.043Z,16.76
2019-05-05T07:04:54.650Z,16.93
2019-05-05T07:07:26.211Z,17.12
2019-05-05T07:09:55.721Z,17.29
2019-05-05T07:12:25.095Z,17.44
2019-05-05T07:14:54.792Z,17.62
2019-05-05T07:17:26.781Z,17.67
2019-05-05T07:19:56.338Z,17.89
2019-05-05T07:22:25.995Z,18.20
2019-05-05T07:24:55.654Z,18.24
2019-05-05T07:27:25.124Z,18.76
2019-05-05T07:29:54.682Z,18.64
2019-05-05T07:32:24.649Z,19.00
2019-05-05T07:34:58.965Z,19.34
2019-05-05T07:37:28.423Z,19.37
2019-05-05T07:39:57.978Z,19.47
2019-05-05T07:42:27.635Z,19.34
2019-05-05T07:44:57.240Z,19.06
2019-05-05T07:47:29.019Z,19.30
2019-05-05T07:49:58.090Z,19.68
2019-05-05T07:52:27.674Z,19.56
2019-05-05T07:54:57.185Z,19.65
2019-05-05T07:57:26.745Z,19.34
2019-05-05T07:59:56.410Z,19.34
2019-05-05T08:02:26.033Z,19.38
2019-05-05T08:04:55.509Z,19.42
2019-05-05T08:07:25.226Z,19.34
2019-05-05T08:09:54.674Z,19.51
2019-05-05T08:12:25.021Z,20.29
2019-05-05T08:14:57.271Z,21.51
2019-05-05T08:17:28.787Z,21.04
2019-05-05T08:20:05.821Z,21.14
2019-05-05T08:22:35.183Z,21.59
2019-05-05T08:25:07.661Z,22.06
2019-05-05T08:27:41.635Z,22.55
2019-05-05T08:30:14.556Z,22.44
2019-05-05T08:32:47.735Z,22.44
2019-05-05T08:35:17.227Z,22.66
2019-05-05T08:37:53.996Z,23.46
2019-05-05T08:40:36.989Z,23.33
2019-05-05T08:43:04.683Z,23.68
2019-05-05T08:45:36.182Z,23.10
2019-05-05T08:48:17.990Z,24.13
2019-05-05T08:50:54.115Z,24.13
2019-05-05T08:53:24.426Z,24.09
2019-05-05T08:56:06.856Z,23.67
2019-05-05T08:58:38.192Z,23.67
2019-05-05T09:01:20.959Z,24.01
2019-05-05T09:03:53.621Z,24.28
2019-05-05T09:06:24.126Z,23.94
2019-05-05T09:09:00.939Z,24.14
2019-05-05T09:11:34.251Z,24.14
2019-05-05T09:14:07.583Z,24.11
2019-05-05T09:16:41.185Z,23.14
2019-05-05T09:19:14.692Z,23.03
2019-05-05T09:21:50.215Z,23.03
2019-05-05T09:24:28.806Z,24.10
2019-05-05T09:32:38.156Z,24.80
2019-05-05T09:35:13.734Z,25.21
2019-05-05T09:37:44.410Z,24.43
2019-05-05T09:40:16.939Z,24.38
2019-05-05T09:42:49.743Z,25.02
2019-05-05T09:46:04.870Z,24.75
2019-05-05T09:48:16.103Z,25.12
2019-05-05T09:50:51.567Z,24.86
2019-05-05T09:53:23.758Z,24.96
2019-05-05T09:55:54.746Z,24.96
2019-05-05T09:58:28.085Z,25.18
2019-05-05T10:01:00.497Z,24.61
2019-05-05T10:03:34.072Z,25.25
2019-05-05T10:06:05.034Z,25.20
2019-05-05T10:08:37.730Z,25.95
2019-05-05T10:11:10.326Z,26.35
2019-05-05T10:13:40.693Z,26.02
2019-05-05T10:16:14.329Z,26.23
2019-05-05T10:18:51.524Z,26.49
2019-05-05T10:21:24.443Z,26.67
2019-05-05T10:23:54.549Z,26.28
2019-05-05T10:26:34.483Z,26.28
2019-05-05T10:29:17.494Z,26.73
2019-05-05T10:31:59.495Z,26.37
2019-05-05T10:37:23.494Z,26.03
2019-05-05T10:39:54.911Z,25.25
2019-05-05T10:42:46.521Z,25.43
2019-05-05T10:45:21.112Z,25.55
2019-05-05T10:47:56.146Z,26.20
2019-05-05T10:50:29.744Z,26.80
2019-05-05T10:53:05.967Z,26.37
2019-05-05T10:55:45.969Z,26.25
2019-05-05T10:58:19.444Z,26.65
2019-05-05T11:06:32.525Z,26.34
2019-05-05T11:09:14.438Z,26.74
2019-05-05T11:11:41.161Z,26.67
2019-05-05T11:14:14.187Z,26.47
2019-05-05T11:19:34.496Z,25.50
2019-05-05T11:22:10.995Z,25.88
2019-05-05T11:24:40.042Z,25.98
2019-05-05T11:27:11.908Z,25.96
2019-05-05T11:30:03.936Z,25.74
2019-05-05T11:32:51.287Z,25.92
2019-05-05T11:35:24.417Z,25.94
2019-05-05T11:37:55.909Z,26.01
2019-05-05T11:40:29.760Z,26.15
2019-05-05T11:43:10.792Z,26.22
2019-05-05T11:45:46.301Z,25.94
2019-05-05T11:48:26.829Z,25.69
2019-05-05T11:51:07.162Z,25.74
2019-05-05T11:53:39.469Z,26.29
2019-05-05T11:56:10.995Z,26.69
2019-05-05T11:58:44.049Z,26.84
2019-05-05T12:01:16.576Z,26.68
2019-05-05T12:03:45.305Z,26.49
2019-05-05T12:06:17.601Z,26.38
2019-05-05T12:08:49.691Z,26.29
2019-05-05T12:11:23.493Z,26.39
2019-05-05T12:13:56.817Z,26.19
2019-05-05T12:16:38.900Z,26.78
2019-05-05T12:19:13.733Z,27.56
2019-05-05T12:21:49.649Z,27.53
2019-05-05T12:24:21.014Z,27.16
2019-05-05T12:26:57.541Z,27.32
2019-05-05T12:29:37.347Z,27.14
2019-05-05T12:32:12.965Z,26.82
2019-05-05T12:34:44.485Z,26.77
2019-05-05T12:37:17.130Z,26.69
2019-05-05T12:39:49.982Z,26.32
2019-05-05T12:42:20.814Z,25.78
2019-05-05T12:44:53.733Z,25.60
2019-05-05T12:47:41.215Z,25.69
2019-05-05T12:50:12.075Z,25.17
2019-05-05T12:52:41.272Z,25.17
2019-05-05T12:55:18.856Z,25.23
2019-05-05T12:57:56.172Z,24.94
2019-05-05T13:00:26.104Z,24.81
2019-05-05T13:03:04.929Z,24.81
2019-05-05T13:05:41.632Z,24.43
2019-05-05T13:08:14.350Z,24.43
2019-05-05T13:10:44.192Z,24.82
2019-05-05T13:13:17.415Z,24.74
2019-05-05T13:15:54.749Z,24.56
2019-05-05T13:18:28.669Z,24.51
2019-05-05T13:21:07.081Z,24.51
2019-05-05T13:23:40.680Z,24.52
2019-05-05T13:26:20.960Z,24.51
2019-05-05T13:28:50.652Z,24.51
2019-05-05T13:31:24.437Z,24.54
2019-05-05T13:33:55.785Z,24.54
2019-05-05T13:36:27.571Z,24.49
2019-05-05T13:38:58.402Z,24.49
2019-05-05T13:41:40.117Z,24.38
2019-05-05T13:44:27.651Z,24.40
2019-05-05T13:46:49.521Z,24.65
2019-05-05T13:49:23.914Z,24.65
2019-05-05T13:51:56.798Z,24.48
2019-05-05T13:54:33.530Z,24.34
2019-05-05T13:57:06.152Z,24.29
2019-05-05T13:59:44.482Z,24.29
2019-05-05T14:02:13.955Z,24.12
2019-05-05T14:04:43.935Z,24.02
2019-05-05T14:07:13.671Z,23.83
2019-05-05T14:09:44.158Z,23.77
2019-05-05T14:12:16.903Z,23.62
2019-05-05T14:14:48.703Z,23.55
2019-05-05T14:17:19.477Z,23.53
2019-05-05T14:20:01.231Z,23.53
2019-05-05T14:22:24.244Z,23.44
2019-05-05T14:25:01.264Z,23.48
2019-05-05T14:27:33.553Z,23.59
2019-05-05T14:30:14.319Z,23.69
2019-05-05T14:32:54.474Z,23.69
2019-05-05T14:35:28.582Z,23.63
2019-05-05T14:38:05.727Z,23.38
2019-05-05T14:40:35.287Z,23.25
2019-05-05T14:43:06.942Z,23.20
2019-05-05T14:45:36.207Z,23.03
2019-05-05T14:48:05.721Z,23.03
2019-05-05T14:50:36.688Z,22.96
2019-05-05T14:53:06.266Z,22.97
2019-05-05T14:55:35.531Z,22.92
2019-05-05T14:58:05.112Z,23.07
2019-05-05T15:00:34.715Z,22.97
2019-05-05T15:03:04.096Z,22.98
2019-05-05T15:05:38.326Z,22.70
2019-05-05T15:08:21.373Z,22.67
2019-05-05T15:11:03.533Z,22.67
2019-05-05T15:13:33.618Z,22.75
2019-05-05T15:16:03.996Z,22.59
2019-05-05T15:18:36.164Z,22.60
2019-05-05T15:21:05.123Z,22.60
2019-05-05T15:23:34.598Z,22.68
2019-05-05T15:26:04.555Z,22.44
2019-05-05T15:28:37.999Z,22.47
2019-05-05T15:31:11.287Z,22.47
2019-05-05T15:33:40.878Z,22.74
2019-05-05T15:36:10.312Z,22.79
2019-05-05T15:38:45.825Z,22.74
2019-05-05T15:41:15.396Z,22.84
2019-05-05T15:43:44.809Z,22.84
2019-05-05T15:46:15.221Z,22.88
2019-05-05T15:48:47.287Z,22.68
2019-05-05T15:51:16.762Z,22.46
2019-05-05T15:53:46.129Z,22.45
2019-05-05T15:56:15.438Z,22.44
2019-05-05T15:58:45.017Z,22.45
2019-05-05T16:01:17.472Z,22.45
2019-05-05T16:03:49.898Z,22.30
2019-05-05T16:06:19.529Z,22.30
2019-05-05T16:08:50.773Z,22.30
2019-05-05T16:11:23.371Z,22.24
2019-05-05T16:13:54.467Z,22.29
2019-05-05T16:16:25.549Z,22.05
2019-05-05T16:19:05.484Z,22.16
2019-05-05T16:21:47.248Z,22.15
2019-05-05T16:24:18.273Z,21.89
2019-05-05T16:26:47.992Z,21.89
2019-05-05T16:29:17.664Z,21.68
2019-05-05T16:31:47.168Z,21.51
2019-05-05T16:34:16.641Z,21.53
2019-05-05T16:36:46.125Z,21.53
2019-05-05T16:39:16.382Z,21.49
2019-05-05T16:41:46.006Z,21.34
2019-05-05T16:44:15.814Z,21.36
2019-05-05T16:46:46.723Z,21.20
2019-05-05T16:49:16.077Z,21.11
2019-05-05T16:51:47.270Z,21.03
2019-05-05T16:54:24.304Z,20.82
2019-05-05T16:56:53.836Z,20.73
2019-05-05T16:59:23.761Z,20.62
2019-05-05T17:01:54.082Z,20.57
2019-05-05T17:04:24.340Z,20.29
2019-05-05T17:06:54.796Z,20.29
2019-05-05T17:12:24.350Z,20.31
2019-05-05T17:14:55.580Z,20.22
2019-05-05T17:17:26.610Z,20.20
2019-05-05T17:19:57.755Z,20.04
2019-05-05T17:22:28.739Z,20.01
2019-05-05T17:24:58.272Z,19.91
2019-05-05T17:27:27.710Z,19.87
2019-05-05T17:29:57.456Z,19.87
2019-05-05T17:32:27.856Z,19.74
2019-05-05T17:34:57.376Z,19.79
2019-05-05T17:37:26.712Z,19.51
2019-05-05T17:39:55.311Z,19.51
2019-05-05T17:42:26.479Z,19.53
2019-05-05T17:45:15.878Z,19.50
2019-05-05T17:47:49.589Z,19.43
2019-05-05T17:50:26.639Z,19.43
2019-05-05T17:52:57.667Z,19.37
2019-05-05T17:55:33.652Z,19.41
2019-05-05T17:58:02.937Z,19.32
2019-05-05T18:00:34.408Z,19.22
2019-05-05T18:03:04.454Z,19.25
2019-05-05T18:05:54.328Z,19.13
2019-05-05T18:08:37.049Z,19.04
2019-05-05T18:11:25.380Z,19.00
2019-05-05T18:13:56.581Z,18.99
2019-05-05T18:16:28.724Z,18.98
2019-05-05T18:18:58.059Z,18.81
2019-05-05T18:21:32.288Z,18.76
2019-05-05T18:24:02.013Z,18.77
2019-05-05T18:26:31.455Z,18.73
2019-05-05T18:29:00.906Z,18.74
2019-05-05T18:31:30.370Z,18.73
2019-05-05T18:33:59.907Z,18.62
2019-05-05T18:36:29.313Z,18.49
2019-05-05T18:38:58.687Z,18.41
2019-05-05T18:41:29.678Z,18.31
2019-05-05T18:44:15.922Z,18.17
2019-05-05T18:46:45.502Z,18.10
2019-05-05T18:49:14.863Z,18.08
2019-05-05T18:51:44.357Z,17.95
2019-05-05T18:54:13.793Z,17.90
2019-05-05T18:56:44.015Z,17.78
2019-05-05T18:59:13.691Z,17.67
2019-05-05T19:01:44.697Z,17.71
2019-05-05T19:04:15.718Z,17.82
2019-05-05T19:06:46.724Z,17.80
2019-05-05T19:09:17.775Z,17.77
2019-05-05T19:11:47.249Z,17.76
2019-05-05T19:14:17.055Z,17.72
2019-05-05T19:16:46.529Z,17.75
2019-05-05T19:19:15.997Z,17.77
2019-05-05T19:21:55.895Z,17.65
2019-05-05T19:24:25.265Z,17.61
2019-05-05T19:26:56.065Z,17.56
2019-05-05T19:29:25.727Z,17.60
2019-05-05T19:31:55.145Z,17.54
2019-05-05T19:34:24.623Z,17.14
2019-05-05T19:36:54.680Z,17.14
2019-05-05T19:39:24.710Z,17.00
2019-05-05T19:41:54.617Z,17.03
2019-05-05T19:44:26.161Z,17.03
2019-05-05T19:46:57.050Z,17.04
2019-05-05T19:49:26.444Z,17.04
2019-05-05T19:51:55.937Z,17.15
2019-05-05T19:54:25.375Z,17.07
2019-05-05T19:56:54.792Z,16.95
2019-05-05T19:59:24.206Z,16.76
2019-05-05T20:01:54.675Z,16.72
2019-05-05T20:04:24.374Z,16.72
2019-05-05T20:06:54.837Z,16.73
2019-05-05T20:09:24.869Z,16.68
2019-05-05T20:11:54.651Z,16.56
2019-05-05T20:14:24.779Z,16.50
2019-05-05T20:17:10.930Z,16.56
2019-05-05T20:19:43.951Z,16.44
2019-05-05T20:22:14.622Z,16.42
2019-05-05T20:24:44.531Z,16.31
2019-05-05T20:27:14.130Z,16.27
2019-05-05T20:29:43.562Z,16.17
2019-05-05T20:32:13.937Z,16.08
2019-05-05T20:34:47.849Z,16.19
2019-05-05T20:37:23.522Z,16.17
2019-05-05T20:39:54.451Z,16.14
2019-05-05T20:42:24.153Z,16.08
2019-05-05T20:44:54.422Z,16.10
2019-05-05T20:47:24.108Z,16.15
2019-05-05T20:49:54.022Z,16.12
2019-05-05T20:52:23.789Z,16.03
2019-05-05T20:54:53.748Z,16.02
2019-05-05T20:57:23.307Z,16.03
2019-05-05T20:59:52.771Z,16.05
2019-05-05T21:02:24.246Z,15.93
2019-05-05T21:04:54.101Z,15.83
2019-05-05T21:07:26.472Z,15.76
2019-05-05T21:09:54.718Z,15.75
2019-05-05T21:12:25.821Z,15.67
2019-05-05T21:14:55.193Z,15.65
2019-05-05T21:17:24.594Z,15.57
2019-05-05T21:19:54.025Z,15.53
2019-05-05T21:25:08.418Z,15.41
2019-05-05T21:27:37.773Z,15.39
2019-05-05T21:30:09.887Z,15.35
2019-05-05T21:32:39.263Z,15.32
2019-05-05T21:35:08.633Z,15.30
2019-05-05T21:37:38.009Z,15.34
2019-05-05T21:40:07.445Z,15.27
2019-05-05T21:42:36.817Z,15.24
2019-05-05T21:45:07.094Z,15.19
2019-05-05T21:47:36.439Z,15.25
2019-05-05T21:50:08.206Z,15.25
2019-05-05T21:52:39.202Z,15.23
2019-05-05T21:55:16.004Z,15.20
2019-05-05T21:57:47.024Z,15.18
2019-05-05T22:00:34.863Z,15.04
2019-05-05T22:03:04.613Z,15.01
2019-05-05T22:05:34.042Z,14.96
2019-05-05T22:08:04.724Z,14.93
2019-05-05T22:10:34.472Z,14.92
2019-05-05T22:13:04.858Z,14.99
2019-05-05T22:15:35.725Z,14.95
2019-05-05T22:18:05.202Z,14.93
2019-05-05T22:20:45.630Z,14.96
2019-05-05T22:23:15.008Z,14.92
2019-05-05T22:25:44.435Z,14.88
2019-05-05T22:28:13.830Z,14.85
2019-05-05T22:30:43.738Z,14.90
2019-05-05T22:33:13.792Z,14.98
2019-05-05T22:35:44.260Z,14.96
2019-05-05T22:38:14.016Z,14.90
2019-05-05T22:40:44.096Z,14.93
2019-05-05T22:43:14.782Z,14.92
2019-05-05T22:45:45.113Z,14.82
2019-05-05T22:48:14.627Z,14.79
2019-05-05T22:50:43.982Z,14.78
2019-05-05T22:53:14.036Z,14.81
2019-05-05T22:55:44.489Z,14.83
2019-05-05T22:58:14.309Z,14.89
2019-05-05T23:00:43.983Z,14.84
2019-05-05T23:03:14.971Z,14.85
2019-05-05T23:08:40.495Z,14.75
2019-05-05T23:11:09.920Z,14.75
2019-05-05T23:13:39.427Z,14.74
2019-05-05T23:16:16.102Z,14.78
2019-05-05T23:18:46.145Z,14.78
2019-05-05T23:21:25.965Z,14.78
2019-05-05T23:23:59.742Z,14.78
2019-05-05T23:26:36.823Z,14.76
2019-05-05T23:29:06.159Z,14.74
2019-05-05T23:31:35.627Z,14.71
2019-05-05T23:34:05.001Z,14.75
2019-05-05T23:36:35.296Z,14.73
2019-05-05T23:39:06.642Z,14.75
2019-05-05T23:41:36.696Z,14.85
2019-05-05T23:44:06.398Z,14.86
2019-05-05T23:46:35.751Z,14.88
2019-05-05T23:49:05.275Z,15.00
2019-05-05T23:51:34.948Z,15.12
2019-05-05T23:54:04.502Z,15.25
2019-05-05T23:56:35.188Z,15.24
2019-05-05T23:59:04.613Z,15.29
